Weather at Clermont-Ferrand Auvergne Airport

Public forecast

Using degrees Celsius for public forecast. Weather courtesy of forecast.io.

Current aviation weather report (METAR) for Clermont-Ferrand Auvergne Airport

Retrieved 2020/11/27 13:30 UTC (14 minutes ago):

LFLC 271330Z AUTO 19008KT 150V210 CAVOK 17/07 Q1014 NOSIG

Aviation forecast (TAF) for Clermont-Ferrand Auvergne Airport

Retrieved 2020/11/27 12:21 UTC (1 hour ago):

TAF LFLC 271100Z 2712/2812 18010KT CAVOK BECMG 2722/2724 VRB02KT PROB30 TEMPO 2804/2808 0400 FG VV/// BECMG 2810/2812 36010KT